KGDV/GDV METAR and TAF weather

Enter ICAO airport designator
Station Type Date Time Source
KGDV METAR 2019/04/19 10:56 UTC NOAA

KGDV 191056Z AUTO 20010KT 10SM CLR 08/M02 A2990 RMK AO2 SLP126 T00781022


Station Type Date Time Source
KGDV Decoded METAR 2019/04/19 10:56 UTC NOAA

Glendive, Dawson Community Airport, MT, United States (KGDV) 47-08N 104-48W
Apr 19, 2019 - 06:56 AM EDT / 2019.04.19 1056 UTC
Wind: from the SSW (200 degrees) at 12 MPH (10 KT):0
Visibility: 10 mile(s):0
Sky conditions: clear
Temperature: 46.0 F (7.8 C)
Dew Point: 28.0 F (-2.2 C)
Relative Humidity: 49%
Pressure (altimeter): 29.9 in. Hg (1012 hPa)
ob: KGDV 191056Z AUTO 20010KT 10SM CLR 08/M02 A2990 RMK AO2 SLP126 T00781022
cycle: 11

Station Type Date Time Source
KGDV TAF 2019/04/19 06:36 UTC NOAA

TAF KGDV 190535Z 1906/2006 VRB06KT P6SM SCT090
FM191700 26016KT P6SM FEW100
FM191800 27018G27KT P6SM FEW120
FM200400 23008KT P6SM VCSH FEW110

Example: see airport list